sensor_id;sensor_type;location;lat;lon;timestamp;P1;durP1;ratioP1;P2;durP2;ratioP2
69126;SDS011;56688;50.234;19.292;2023-12-07T00:02:03;52.40;;;21.40;;
69126;SDS011;56688;50.234;19.292;2023-12-07T00:04:31;53.00;;;21.50;;
69126;SDS011;56688;50.234;19.292;2023-12-07T00:06:58;53.00;;;21.10;;
69126;SDS011;56688;50.234;19.292;2023-12-07T00:09:25;48.10;;;20.60;;
69126;SDS011;56688;50.234;19.292;2023-12-07T00:11:52;48.60;;;20.00;;
69126;SDS011;56688;50.234;19.292;2023-12-07T00:14:20;54.30;;;20.80;;
69126;SDS011;56688;50.234;19.292;2023-12-07T00:16:46;50.30;;;18.80;;
69126;SDS011;56688;50.234;19.292;2023-12-07T00:19:13;57.10;;;21.80;;
69126;SDS011;56688;50.234;19.292;2023-12-07T00:21:40;54.70;;;21.40;;
69126;SDS011;56688;50.234;19.292;2023-12-07T00:24:07;57.20;;;21.00;;
69126;SDS011;56688;50.234;19.292;2023-12-07T00:26:35;58.80;;;23.10;;
69126;SDS011;56688;50.234;19.292;2023-12-07T00:29:02;54.60;;;22.90;;
69126;SDS011;56688;50.234;19.292;2023-12-07T00:31:29;61.70;;;24.20;;
69126;SDS011;56688;50.234;19.292;2023-12-07T00:33:56;61.30;;;23.10;;
69126;SDS011;56688;50.234;19.292;2023-12-07T00:36:23;55.50;;;22.90;;
69126;SDS011;56688;50.234;19.292;2023-12-07T00:38:50;56.90;;;21.70;;
69126;SDS011;56688;50.234;19.292;2023-12-07T00:41:17;59.80;;;20.60;;
69126;SDS011;56688;50.234;19.292;2023-12-07T00:43:44;53.40;;;19.20;;
69126;SDS011;56688;50.234;19.292;2023-12-07T00:46:12;54.30;;;20.70;;
69126;SDS011;56688;50.234;19.292;2023-12-07T00:48:39;67.50;;;24.00;;
69126;SDS011;56688;50.234;19.292;2023-12-07T00:51:06;54.30;;;22.30;;
69126;SDS011;56688;50.234;19.292;2023-12-07T00:53:33;60.10;;;23.00;;
69126;SDS011;56688;50.234;19.292;2023-12-07T00:56:02;53.50;;;21.50;;
69126;SDS011;56688;50.234;19.292;2023-12-07T00:58:29;56.30;;;22.10;;
69126;SDS011;56688;50.234;19.292;2023-12-07T01:00:56;51.30;;;21.80;;
69126;SDS011;56688;50.234;19.292;2023-12-07T01:03:23;53.50;;;20.70;;
69126;SDS011;56688;50.234;19.292;2023-12-07T01:05:50;54.00;;;21.10;;
69126;SDS011;56688;50.234;19.292;2023-12-07T01:08:18;61.30;;;20.50;;
69126;SDS011;56688;50.234;19.292;2023-12-07T01:10:45;58.00;;;20.00;;
69126;SDS011;56688;50.234;19.292;2023-12-07T01:13:12;56.30;;;20.40;;
69126;SDS011;56688;50.234;19.292;2023-12-07T01:15:39;60.20;;;22.20;;
69126;SDS011;56688;50.234;19.292;2023-12-07T01:18:06;52.20;;;21.60;;
69126;SDS011;56688;50.234;19.292;2023-12-07T01:20:33;59.40;;;22.90;;
69126;SDS011;56688;50.234;19.292;2023-12-07T01:23:00;62.00;;;23.50;;
69126;SDS011;56688;50.234;19.292;2023-12-07T01:25:27;58.20;;;22.30;;
69126;SDS011;56688;50.234;19.292;2023-12-07T01:27:54;61.80;;;22.50;;
69126;SDS011;56688;50.234;19.292;2023-12-07T01:30:22;60.70;;;23.10;;
69126;SDS011;56688;50.234;19.292;2023-12-07T01:32:50;58.30;;;22.30;;
69126;SDS011;56688;50.234;19.292;2023-12-07T01:35:17;56.80;;;21.80;;
69126;SDS011;56688;50.234;19.292;2023-12-07T01:37:44;65.90;;;22.30;;
69126;SDS011;56688;50.234;19.292;2023-12-07T01:40:11;62.40;;;22.30;;
69126;SDS011;56688;50.234;19.292;2023-12-07T01:42:38;57.70;;;21.70;;
69126;SDS011;56688;50.234;19.292;2023-12-07T01:45:05;64.60;;;24.20;;
69126;SDS011;56688;50.234;19.292;2023-12-07T01:47:33;68.10;;;24.20;;
69126;SDS011;56688;50.234;19.292;2023-12-07T01:50:03;67.60;;;24.80;;
69126;SDS011;56688;50.234;19.292;2023-12-07T01:52:31;63.30;;;24.50;;
69126;SDS011;56688;50.234;19.292;2023-12-07T01:55:00;76.60;;;28.40;;
69126;SDS011;56688;50.234;19.292;2023-12-07T01:57:27;66.40;;;25.70;;
69126;SDS011;56688;50.234;19.292;2023-12-07T01:59:55;68.90;;;25.50;;
69126;SDS011;56688;50.234;19.292;2023-12-07T02:02:22;62.00;;;22.90;;
69126;SDS011;56688;50.234;19.292;2023-12-07T02:04:50;73.50;;;24.90;;
69126;SDS011;56688;50.234;19.292;2023-12-07T02:07:18;72.20;;;25.00;;
69126;SDS011;56688;50.234;19.292;2023-12-07T02:09:46;64.30;;;23.70;;
69126;SDS011;56688;50.234;19.292;2023-12-07T02:12:13;61.00;;;22.80;;
69126;SDS011;56688;50.234;19.292;2023-12-07T02:14:40;66.10;;;24.20;;
69126;SDS011;56688;50.234;19.292;2023-12-07T02:22:46;59.30;;;21.80;;
69126;SDS011;56688;50.234;19.292;2023-12-07T02:25:19;63.90;;;23.50;;
69126;SDS011;56688;50.234;19.292;2023-12-07T02:27:52;65.40;;;23.20;;
69126;SDS011;56688;50.234;19.292;2023-12-07T02:30:19;64.80;;;24.40;;
69126;SDS011;56688;50.234;19.292;2023-12-07T02:32:46;63.80;;;23.40;;
69126;SDS011;56688;50.234;19.292;2023-12-07T02:35:13;65.20;;;22.90;;
69126;SDS011;56688;50.234;19.292;2023-12-07T02:37:44;65.20;;;22.90;;
69126;SDS011;56688;50.234;19.292;2023-12-07T02:40:12;68.30;;;24.80;;
69126;SDS011;56688;50.234;19.292;2023-12-07T02:42:44;67.20;;;25.40;;
69126;SDS011;56688;50.234;19.292;2023-12-07T02:45:12;68.30;;;24.60;;
69126;SDS011;56688;50.234;19.292;2023-12-07T02:47:40;63.00;;;24.00;;
69126;SDS011;56688;50.234;19.292;2023-12-07T02:50:07;65.40;;;25.70;;
69126;SDS011;56688;50.234;19.292;2023-12-07T02:52:35;63.30;;;25.30;;
69126;SDS011;56688;50.234;19.292;2023-12-07T02:55:03;69.40;;;26.90;;
69126;SDS011;56688;50.234;19.292;2023-12-07T02:57:31;69.50;;;26.40;;
69126;SDS011;56688;50.234;19.292;2023-12-07T03:00:00;78.30;;;28.70;;
69126;SDS011;56688;50.234;19.292;2023-12-07T03:02:30;81.50;;;28.80;;
69126;SDS011;56688;50.234;19.292;2023-12-07T03:04:57;64.70;;;23.80;;
69126;SDS011;56688;50.234;19.292;2023-12-07T03:07:24;66.20;;;24.40;;
69126;SDS011;56688;50.234;19.292;2023-12-07T03:09:51;68.00;;;24.70;;
69126;SDS011;56688;50.234;19.292;2023-12-07T03:12:18;63.20;;;22.90;;
69126;SDS011;56688;50.234;19.292;2023-12-07T03:14:45;67.30;;;24.20;;
69126;SDS011;56688;50.234;19.292;2023-12-07T03:17:12;66.80;;;24.30;;
69126;SDS011;56688;50.234;19.292;2023-12-07T03:19:40;74.00;;;25.10;;
69126;SDS011;56688;50.234;19.292;2023-12-07T03:22:07;72.90;;;25.50;;
69126;SDS011;56688;50.234;19.292;2023-12-07T03:24:35;77.10;;;26.80;;
69126;SDS011;56688;50.234;19.292;2023-12-07T03:27:03;74.40;;;26.30;;
69126;SDS011;56688;50.234;19.292;2023-12-07T03:29:31;72.90;;;25.40;;
69126;SDS011;56688;50.234;19.292;2023-12-07T03:31:58;71.90;;;23.80;;
69126;SDS011;56688;50.234;19.292;2023-12-07T03:34:25;76.10;;;24.90;;
69126;SDS011;56688;50.234;19.292;2023-12-07T03:36:52;71.90;;;25.50;;
69126;SDS011;56688;50.234;19.292;2023-12-07T03:39:19;70.80;;;26.00;;
69126;SDS011;56688;50.234;19.292;2023-12-07T03:41:48;73.20;;;26.20;;
69126;SDS011;56688;50.234;19.292;2023-12-07T03:44:16;72.70;;;25.40;;
69126;SDS011;56688;50.234;19.292;2023-12-07T03:46:43;77.80;;;25.10;;
69126;SDS011;56688;50.234;19.292;2023-12-07T03:49:09;74.50;;;25.30;;
69126;SDS011;56688;50.234;19.292;2023-12-07T03:51:37;66.90;;;24.60;;
69126;SDS011;56688;50.234;19.292;2023-12-07T03:54:04;66.70;;;24.70;;
69126;SDS011;56688;50.234;19.292;2023-12-07T03:56:32;63.40;;;22.60;;
69126;SDS011;56688;50.234;19.292;2023-12-07T03:58:59;72.30;;;24.50;;
69126;SDS011;56688;50.234;19.292;2023-12-07T04:01:27;75.90;;;27.70;;
69126;SDS011;56688;50.234;19.292;2023-12-07T04:03:56;72.60;;;27.30;;
69126;SDS011;56688;50.234;19.292;2023-12-07T04:06:24;70.50;;;26.90;;
69126;SDS011;56688;50.234;19.292;2023-12-07T04:08:52;77.40;;;27.40;;
69126;SDS011;56688;50.234;19.292;2023-12-07T04:11:19;70.10;;;24.00;;
69126;SDS011;56688;50.234;19.292;2023-12-07T04:13:46;71.90;;;24.50;;
69126;SDS011;56688;50.234;19.292;2023-12-07T04:16:15;71.70;;;25.30;;
69126;SDS011;56688;50.234;19.292;2023-12-07T04:18:42;65.00;;;22.80;;
69126;SDS011;56688;50.234;19.292;2023-12-07T04:21:09;69.70;;;24.60;;
69126;SDS011;56688;50.234;19.292;2023-12-07T04:23:36;68.80;;;24.80;;
69126;SDS011;56688;50.234;19.292;2023-12-07T04:26:03;75.80;;;24.20;;
69126;SDS011;56688;50.234;19.292;2023-12-07T04:28:30;69.10;;;24.30;;
69126;SDS011;56688;50.234;19.292;2023-12-07T04:30:57;69.50;;;26.00;;
69126;SDS011;56688;50.234;19.292;2023-12-07T04:33:24;77.00;;;27.40;;
69126;SDS011;56688;50.234;19.292;2023-12-07T04:35:51;71.20;;;26.60;;
69126;SDS011;56688;50.234;19.292;2023-12-07T04:38:18;72.60;;;27.10;;
69126;SDS011;56688;50.234;19.292;2023-12-07T04:40:45;76.70;;;27.00;;
69126;SDS011;56688;50.234;19.292;2023-12-07T04:43:12;78.80;;;27.30;;
69126;SDS011;56688;50.234;19.292;2023-12-07T04:45:39;75.10;;;27.00;;
69126;SDS011;56688;50.234;19.292;2023-12-07T04:48:06;77.30;;;28.50;;
69126;SDS011;56688;50.234;19.292;2023-12-07T04:50:33;81.40;;;28.00;;
69126;SDS011;56688;50.234;19.292;2023-12-07T04:53:00;76.30;;;26.50;;
69126;SDS011;56688;50.234;19.292;2023-12-07T04:55:27;78.90;;;27.40;;
69126;SDS011;56688;50.234;19.292;2023-12-07T04:57:54;81.20;;;27.80;;
69126;SDS011;56688;50.234;19.292;2023-12-07T05:00:21;83.90;;;29.70;;
69126;SDS011;56688;50.234;19.292;2023-12-07T05:02:48;75.70;;;28.30;;
69126;SDS011;56688;50.234;19.292;2023-12-07T05:05:16;81.30;;;29.20;;
69126;SDS011;56688;50.234;19.292;2023-12-07T05:07:43;78.70;;;28.80;;
69126;SDS011;56688;50.234;19.292;2023-12-07T05:10:23;72.10;;;28.10;;
69126;SDS011;56688;50.234;19.292;2023-12-07T05:12:50;77.20;;;29.20;;
69126;SDS011;56688;50.234;19.292;2023-12-07T05:15:17;81.10;;;29.20;;
69126;SDS011;56688;50.234;19.292;2023-12-07T05:17:44;77.60;;;28.90;;
69126;SDS011;56688;50.234;19.292;2023-12-07T05:20:11;80.40;;;28.80;;
69126;SDS011;56688;50.234;19.292;2023-12-07T05:22:39;80.30;;;29.20;;
69126;SDS011;56688;50.234;19.292;2023-12-07T05:25:06;77.50;;;27.80;;
69126;SDS011;56688;50.234;19.292;2023-12-07T05:27:33;81.20;;;26.50;;
69126;SDS011;56688;50.234;19.292;2023-12-07T05:30:01;83.80;;;28.90;;
69126;SDS011;56688;50.234;19.292;2023-12-07T05:32:28;85.90;;;29.40;;
69126;SDS011;56688;50.234;19.292;2023-12-07T05:34:55;77.30;;;28.80;;
69126;SDS011;56688;50.234;19.292;2023-12-07T05:37:22;77.70;;;29.10;;
69126;SDS011;56688;50.234;19.292;2023-12-07T05:39:49;85.50;;;28.00;;
69126;SDS011;56688;50.234;19.292;2023-12-07T05:42:15;76.90;;;27.90;;
69126;SDS011;56688;50.234;19.292;2023-12-07T05:44:42;81.50;;;28.80;;
69126;SDS011;56688;50.234;19.292;2023-12-07T05:47:09;75.60;;;27.80;;
69126;SDS011;56688;50.234;19.292;2023-12-07T05:49:36;83.20;;;27.20;;
69126;SDS011;56688;50.234;19.292;2023-12-07T05:52:03;81.90;;;26.20;;
69126;SDS011;56688;50.234;19.292;2023-12-07T05:54:30;82.80;;;30.60;;
69126;SDS011;56688;50.234;19.292;2023-12-07T05:59:40;85.60;;;28.80;;
69126;SDS011;56688;50.234;19.292;2023-12-07T06:02:09;79.20;;;27.50;;
69126;SDS011;56688;50.234;19.292;2023-12-07T06:04:36;84.40;;;30.50;;
69126;SDS011;56688;50.234;19.292;2023-12-07T06:07:03;81.00;;;28.20;;
69126;SDS011;56688;50.234;19.292;2023-12-07T06:09:30;81.80;;;28.80;;
69126;SDS011;56688;50.234;19.292;2023-12-07T06:11:57;85.20;;;29.70;;
69126;SDS011;56688;50.234;19.292;2023-12-07T06:14:24;83.10;;;28.20;;
69126;SDS011;56688;50.234;19.292;2023-12-07T06:16:51;88.20;;;30.40;;
69126;SDS011;56688;50.234;19.292;2023-12-07T06:19:18;88.90;;;31.60;;
69126;SDS011;56688;50.234;19.292;2023-12-07T06:21:45;87.70;;;35.20;;
69126;SDS011;56688;50.234;19.292;2023-12-07T06:24:12;90.20;;;33.00;;
69126;SDS011;56688;50.234;19.292;2023-12-07T06:26:40;85.20;;;33.20;;
69126;SDS011;56688;50.234;19.292;2023-12-07T06:29:07;93.60;;;34.50;;
69126;SDS011;56688;50.234;19.292;2023-12-07T06:31:34;95.70;;;35.30;;
69126;SDS011;56688;50.234;19.292;2023-12-07T06:34:01;95.50;;;33.90;;
69126;SDS011;56688;50.234;19.292;2023-12-07T06:36:29;92.00;;;32.70;;
69126;SDS011;56688;50.234;19.292;2023-12-07T06:38:56;97.20;;;33.00;;
69126;SDS011;56688;50.234;19.292;2023-12-07T06:41:24;89.00;;;29.60;;
69126;SDS011;56688;50.234;19.292;2023-12-07T06:43:51;100.80;;;35.70;;
69126;SDS011;56688;50.234;19.292;2023-12-07T06:46:20;90.90;;;32.50;;
69126;SDS011;56688;50.234;19.292;2023-12-07T06:48:47;86.60;;;32.00;;
69126;SDS011;56688;50.234;19.292;2023-12-07T06:51:14;94.10;;;33.50;;
69126;SDS011;56688;50.234;19.292;2023-12-07T06:53:41;86.40;;;32.70;;
69126;SDS011;56688;50.234;19.292;2023-12-07T06:56:08;96.20;;;32.70;;
69126;SDS011;56688;50.234;19.292;2023-12-07T06:58:36;89.70;;;31.50;;
69126;SDS011;56688;50.234;19.292;2023-12-07T07:01:03;86.10;;;31.70;;
69126;SDS011;56688;50.234;19.292;2023-12-07T07:03:30;87.00;;;32.30;;
69126;SDS011;56688;50.234;19.292;2023-12-07T07:05:57;84.10;;;30.20;;
69126;SDS011;56688;50.234;19.292;2023-12-07T07:08:26;84.00;;;29.40;;
69126;SDS011;56688;50.234;19.292;2023-12-07T07:10:53;89.60;;;33.00;;
69126;SDS011;56688;50.234;19.292;2023-12-07T07:13:20;81.60;;;30.50;;
69126;SDS011;56688;50.234;19.292;2023-12-07T07:15:47;87.20;;;31.20;;
69126;SDS011;56688;50.234;19.292;2023-12-07T07:18:14;78.10;;;29.40;;
69126;SDS011;56688;50.234;19.292;2023-12-07T07:20:42;84.60;;;31.50;;
69126;SDS011;56688;50.234;19.292;2023-12-07T07:23:09;79.70;;;30.60;;
69126;SDS011;56688;50.234;19.292;2023-12-07T07:25:36;90.20;;;31.50;;
69126;SDS011;56688;50.234;19.292;2023-12-07T07:28:03;79.70;;;29.70;;
69126;SDS011;56688;50.234;19.292;2023-12-07T07:30:30;84.90;;;29.20;;
69126;SDS011;56688;50.234;19.292;2023-12-07T07:32:57;85.80;;;29.50;;
69126;SDS011;56688;50.234;19.292;2023-12-07T07:35:24;80.90;;;29.60;;
69126;SDS011;56688;50.234;19.292;2023-12-07T07:37:54;94.40;;;34.10;;
69126;SDS011;56688;50.234;19.292;2023-12-07T07:40:21;87.60;;;31.40;;
69126;SDS011;56688;50.234;19.292;2023-12-07T07:42:48;83.70;;;30.80;;
69126;SDS011;56688;50.234;19.292;2023-12-07T07:45:16;87.30;;;31.70;;
69126;SDS011;56688;50.234;19.292;2023-12-07T07:47:43;89.10;;;32.50;;
69126;SDS011;56688;50.234;19.292;2023-12-07T07:50:10;96.10;;;32.40;;
69126;SDS011;56688;50.234;19.292;2023-12-07T07:52:37;96.10;;;33.10;;
69126;SDS011;56688;50.234;19.292;2023-12-07T07:55:07;93.70;;;32.80;;
69126;SDS011;56688;50.234;19.292;2023-12-07T07:57:34;90.70;;;32.00;;
69126;SDS011;56688;50.234;19.292;2023-12-07T08:00:01;85.20;;;30.30;;
69126;SDS011;56688;50.234;19.292;2023-12-07T08:02:30;92.60;;;31.30;;
69126;SDS011;56688;50.234;19.292;2023-12-07T08:04:57;92.20;;;32.90;;
69126;SDS011;56688;50.234;19.292;2023-12-07T08:07:24;90.30;;;32.60;;
69126;SDS011;56688;50.234;19.292;2023-12-07T08:09:52;93.80;;;34.60;;
69126;SDS011;56688;50.234;19.292;2023-12-07T08:12:19;91.50;;;33.20;;
69126;SDS011;56688;50.234;19.292;2023-12-07T08:14:49;86.30;;;33.60;;
69126;SDS011;56688;50.234;19.292;2023-12-07T08:17:16;92.90;;;35.70;;
69126;SDS011;56688;50.234;19.292;2023-12-07T08:19:45;89.90;;;34.40;;
69126;SDS011;56688;50.234;19.292;2023-12-07T08:22:12;94.90;;;34.80;;
69126;SDS011;56688;50.234;19.292;2023-12-07T08:24:39;88.00;;;32.60;;
69126;SDS011;56688;50.234;19.292;2023-12-07T08:27:06;98.50;;;35.20;;
69126;SDS011;56688;50.234;19.292;2023-12-07T08:29:34;91.00;;;34.10;;
69126;SDS011;56688;50.234;19.292;2023-12-07T08:32:01;90.10;;;31.50;;
69126;SDS011;56688;50.234;19.292;2023-12-07T08:34:28;86.40;;;32.30;;
69126;SDS011;56688;50.234;19.292;2023-12-07T08:36:55;99.40;;;37.80;;
69126;SDS011;56688;50.234;19.292;2023-12-07T08:39:22;88.90;;;33.90;;
69126;SDS011;56688;50.234;19.292;2023-12-07T08:41:50;90.40;;;33.40;;
69126;SDS011;56688;50.234;19.292;2023-12-07T08:44:16;88.90;;;34.90;;
69126;SDS011;56688;50.234;19.292;2023-12-07T08:46:44;84.10;;;34.00;;
69126;SDS011;56688;50.234;19.292;2023-12-07T08:49:11;90.30;;;32.80;;
69126;SDS011;56688;50.234;19.292;2023-12-07T08:51:39;92.60;;;35.10;;
69126;SDS011;56688;50.234;19.292;2023-12-07T08:54:26;97.30;;;34.40;;
69126;SDS011;56688;50.234;19.292;2023-12-07T08:56:53;90.20;;;34.30;;
69126;SDS011;56688;50.234;19.292;2023-12-07T08:59:20;82.20;;;31.30;;
69126;SDS011;56688;50.234;19.292;2023-12-07T09:01:48;91.20;;;33.90;;
69126;SDS011;56688;50.234;19.292;2023-12-07T09:04:15;95.30;;;32.90;;
69126;SDS011;56688;50.234;19.292;2023-12-07T09:06:42;85.80;;;31.20;;
69126;SDS011;56688;50.234;19.292;2023-12-07T09:09:09;84.70;;;32.90;;
69126;SDS011;56688;50.234;19.292;2023-12-07T09:11:38;84.70;;;34.10;;
69126;SDS011;56688;50.234;19.292;2023-12-07T09:14:05;85.10;;;34.20;;
69126;SDS011;56688;50.234;19.292;2023-12-07T09:16:32;96.80;;;37.40;;
69126;SDS011;56688;50.234;19.292;2023-12-07T09:18:59;101.90;;;39.30;;
69126;SDS011;56688;50.234;19.292;2023-12-07T09:21:26;92.60;;;36.00;;
69126;SDS011;56688;50.234;19.292;2023-12-07T09:23:53;97.60;;;37.80;;
69126;SDS011;56688;50.234;19.292;2023-12-07T09:26:20;95.90;;;36.30;;
69126;SDS011;56688;50.234;19.292;2023-12-07T09:28:47;99.90;;;37.70;;
69126;SDS011;56688;50.234;19.292;2023-12-07T09:31:14;88.80;;;34.40;;
69126;SDS011;56688;50.234;19.292;2023-12-07T09:33:43;94.70;;;37.10;;
69126;SDS011;56688;50.234;19.292;2023-12-07T09:36:11;93.90;;;33.70;;
69126;SDS011;56688;50.234;19.292;2023-12-07T09:38:45;98.20;;;35.10;;
69126;SDS011;56688;50.234;19.292;2023-12-07T09:41:12;95.90;;;34.80;;
69126;SDS011;56688;50.234;19.292;2023-12-07T09:43:39;92.60;;;36.50;;
69126;SDS011;56688;50.234;19.292;2023-12-07T09:46:06;93.50;;;35.70;;
69126;SDS011;56688;50.234;19.292;2023-12-07T09:48:33;95.70;;;36.40;;
69126;SDS011;56688;50.234;19.292;2023-12-07T09:51:04;97.20;;;37.00;;
69126;SDS011;56688;50.234;19.292;2023-12-07T09:53:33;89.70;;;35.40;;
69126;SDS011;56688;50.234;19.292;2023-12-07T09:56:01;101.60;;;37.90;;
69126;SDS011;56688;50.234;19.292;2023-12-07T09:58:28;96.40;;;37.00;;
69126;SDS011;56688;50.234;19.292;2023-12-07T10:01:06;91.40;;;36.20;;
69126;SDS011;56688;50.234;19.292;2023-12-07T10:03:33;95.60;;;37.40;;
69126;SDS011;56688;50.234;19.292;2023-12-07T10:06:00;91.20;;;36.50;;
69126;SDS011;56688;50.234;19.292;2023-12-07T10:08:29;99.40;;;37.90;;
69126;SDS011;56688;50.234;19.292;2023-12-07T10:11:01;94.00;;;36.10;;
69126;SDS011;56688;50.234;19.292;2023-12-07T10:13:32;94.30;;;35.70;;
69126;SDS011;56688;50.234;19.292;2023-12-07T10:18:40;92.90;;;34.80;;
69126;SDS011;56688;50.234;19.292;2023-12-07T10:21:10;99.20;;;38.60;;
69126;SDS011;56688;50.234;19.292;2023-12-07T10:23:38;94.30;;;35.80;;
69126;SDS011;56688;50.234;19.292;2023-12-07T10:26:06;86.10;;;34.80;;
69126;SDS011;56688;50.234;19.292;2023-12-07T10:28:34;90.30;;;36.10;;
69126;SDS011;56688;50.234;19.292;2023-12-07T10:31:02;88.70;;;34.10;;
69126;SDS011;56688;50.234;19.292;2023-12-07T10:33:30;85.90;;;35.80;;
69126;SDS011;56688;50.234;19.292;2023-12-07T10:35:57;95.90;;;38.20;;
69126;SDS011;56688;50.234;19.292;2023-12-07T10:38:24;86.60;;;35.40;;
69126;SDS011;56688;50.234;19.292;2023-12-07T10:40:55;95.70;;;39.50;;
69126;SDS011;56688;50.234;19.292;2023-12-07T10:43:31;99.80;;;39.70;;
69126;SDS011;56688;50.234;19.292;2023-12-07T10:46:04;96.80;;;38.60;;
69126;SDS011;56688;50.234;19.292;2023-12-07T10:48:32;85.70;;;36.80;;
69126;SDS011;56688;50.234;19.292;2023-12-07T10:50:59;84.00;;;34.30;;
69126;SDS011;56688;50.234;19.292;2023-12-07T10:53:32;88.90;;;34.50;;
69126;SDS011;56688;50.234;19.292;2023-12-07T10:56:09;82.30;;;34.00;;
69126;SDS011;56688;50.234;19.292;2023-12-07T10:58:38;86.70;;;36.10;;
69126;SDS011;56688;50.234;19.292;2023-12-07T11:01:07;89.60;;;36.70;;
69126;SDS011;56688;50.234;19.292;2023-12-07T11:03:36;87.40;;;36.60;;
69126;SDS011;56688;50.234;19.292;2023-12-07T11:06:08;87.40;;;35.90;;
69126;SDS011;56688;50.234;19.292;2023-12-07T11:08:37;96.70;;;37.30;;
69126;SDS011;56688;50.234;19.292;2023-12-07T11:16:40;89.30;;;36.40;;
69126;SDS011;56688;50.234;19.292;2023-12-07T11:22:02;86.20;;;35.50;;
69126;SDS011;56688;50.234;19.292;2023-12-07T11:24:32;88.40;;;36.10;;
69126;SDS011;56688;50.234;19.292;2023-12-07T11:27:01;86.20;;;35.20;;
69126;SDS011;56688;50.234;19.292;2023-12-07T11:29:28;83.80;;;37.00;;
69126;SDS011;56688;50.234;19.292;2023-12-07T11:31:58;88.60;;;36.50;;
69126;SDS011;56688;50.234;19.292;2023-12-07T11:34:33;86.60;;;37.70;;
69126;SDS011;56688;50.234;19.292;2023-12-07T11:37:02;94.50;;;39.50;;
69126;SDS011;56688;50.234;19.292;2023-12-07T11:39:30;88.50;;;38.00;;
69126;SDS011;56688;50.234;19.292;2023-12-07T11:42:05;84.40;;;36.70;;
69126;SDS011;56688;50.234;19.292;2023-12-07T11:44:38;80.60;;;33.40;;
69126;SDS011;56688;50.234;19.292;2023-12-07T11:47:06;87.70;;;35.20;;
69126;SDS011;56688;50.234;19.292;2023-12-07T11:49:34;86.20;;;36.90;;
69126;SDS011;56688;50.234;19.292;2023-12-07T11:52:22;85.20;;;35.80;;
69126;SDS011;56688;50.234;19.292;2023-12-07T11:54:49;88.00;;;35.70;;
69126;SDS011;56688;50.234;19.292;2023-12-07T11:57:17;83.60;;;35.80;;
69126;SDS011;56688;50.234;19.292;2023-12-07T11:59:45;88.70;;;36.90;;
69126;SDS011;56688;50.234;19.292;2023-12-07T12:02:15;89.60;;;36.80;;
69126;SDS011;56688;50.234;19.292;2023-12-07T12:04:42;88.60;;;36.70;;
69126;SDS011;56688;50.234;19.292;2023-12-07T12:07:10;87.70;;;36.90;;
69126;SDS011;56688;50.234;19.292;2023-12-07T12:09:37;84.00;;;34.60;;
69126;SDS011;56688;50.234;19.292;2023-12-07T12:12:05;93.50;;;36.10;;
69126;SDS011;56688;50.234;19.292;2023-12-07T12:14:32;83.00;;;34.20;;
69126;SDS011;56688;50.234;19.292;2023-12-07T12:16:59;85.90;;;34.80;;
69126;SDS011;56688;50.234;19.292;2023-12-07T12:19:26;81.50;;;35.10;;
69126;SDS011;56688;50.234;19.292;2023-12-07T12:22:01;86.30;;;35.00;;
69126;SDS011;56688;50.234;19.292;2023-12-07T12:24:33;80.50;;;34.40;;
69126;SDS011;56688;50.234;19.292;2023-12-07T12:27:03;80.10;;;34.30;;
69126;SDS011;56688;50.234;19.292;2023-12-07T12:29:30;81.70;;;33.90;;
69126;SDS011;56688;50.234;19.292;2023-12-07T12:32:01;81.60;;;34.90;;
69126;SDS011;56688;50.234;19.292;2023-12-07T12:34:30;79.60;;;34.30;;
69126;SDS011;56688;50.234;19.292;2023-12-07T12:36:59;78.50;;;33.50;;
69126;SDS011;56688;50.234;19.292;2023-12-07T12:39:28;95.90;;;38.00;;
69126;SDS011;56688;50.234;19.292;2023-12-07T12:42:00;82.30;;;34.10;;
69126;SDS011;56688;50.234;19.292;2023-12-07T12:44:30;83.20;;;34.00;;
69126;SDS011;56688;50.234;19.292;2023-12-07T12:47:04;89.50;;;35.40;;
69126;SDS011;56688;50.234;19.292;2023-12-07T12:49:37;94.10;;;37.50;;
69126;SDS011;56688;50.234;19.292;2023-12-07T12:52:09;100.80;;;42.40;;
69126;SDS011;56688;50.234;19.292;2023-12-07T12:54:39;109.40;;;42.30;;
69126;SDS011;56688;50.234;19.292;2023-12-07T12:57:06;98.50;;;39.30;;
69126;SDS011;56688;50.234;19.292;2023-12-07T12:59:34;103.30;;;42.10;;
69126;SDS011;56688;50.234;19.292;2023-12-07T13:02:02;108.90;;;41.10;;
69126;SDS011;56688;50.234;19.292;2023-12-07T13:04:31;99.80;;;42.10;;
69126;SDS011;56688;50.234;19.292;2023-12-07T13:07:07;107.00;;;42.90;;
69126;SDS011;56688;50.234;19.292;2023-12-07T13:09:35;105.70;;;42.50;;
69126;SDS011;56688;50.234;19.292;2023-12-07T13:12:02;105.20;;;43.00;;
69126;SDS011;56688;50.234;19.292;2023-12-07T13:14:32;103.50;;;43.20;;
69126;SDS011;56688;50.234;19.292;2023-12-07T13:17:03;101.10;;;42.20;;
69126;SDS011;56688;50.234;19.292;2023-12-07T13:19:31;99.40;;;40.80;;
69126;SDS011;56688;50.234;19.292;2023-12-07T13:21:59;104.00;;;42.60;;
69126;SDS011;56688;50.234;19.292;2023-12-07T13:24:27;101.90;;;43.10;;
69126;SDS011;56688;50.234;19.292;2023-12-07T13:26:54;100.30;;;39.60;;
69126;SDS011;56688;50.234;19.292;2023-12-07T13:29:23;105.90;;;40.10;;
69126;SDS011;56688;50.234;19.292;2023-12-07T13:32:01;103.90;;;39.10;;
69126;SDS011;56688;50.234;19.292;2023-12-07T13:34:29;119.20;;;40.90;;
69126;SDS011;56688;50.234;19.292;2023-12-07T13:36:56;94.20;;;41.00;;
69126;SDS011;56688;50.234;19.292;2023-12-07T13:39:23;93.80;;;39.60;;
69126;SDS011;56688;50.234;19.292;2023-12-07T13:41:57;101.70;;;41.80;;
69126;SDS011;56688;50.234;19.292;2023-12-07T13:44:27;98.70;;;40.20;;
69126;SDS011;56688;50.234;19.292;2023-12-07T13:46:55;106.50;;;41.20;;
69126;SDS011;56688;50.234;19.292;2023-12-07T13:49:24;96.90;;;39.90;;
69126;SDS011;56688;50.234;19.292;2023-12-07T13:52:00;108.60;;;43.20;;
69126;SDS011;56688;50.234;19.292;2023-12-07T13:57:05;99.30;;;39.30;;
69126;SDS011;56688;50.234;19.292;2023-12-07T13:59:32;106.20;;;40.10;;
69126;SDS011;56688;50.234;19.292;2023-12-07T14:01:59;106.50;;;42.70;;
69126;SDS011;56688;50.234;19.292;2023-12-07T14:04:26;113.80;;;44.50;;
69126;SDS011;56688;50.234;19.292;2023-12-07T14:07:06;110.80;;;43.40;;
69126;SDS011;56688;50.234;19.292;2023-12-07T14:09:36;112.60;;;44.10;;
69126;SDS011;56688;50.234;19.292;2023-12-07T14:12:19;109.60;;;42.60;;
69126;SDS011;56688;50.234;19.292;2023-12-07T14:14:46;108.20;;;43.70;;
69126;SDS011;56688;50.234;19.292;2023-12-07T14:17:15;104.80;;;42.40;;
69126;SDS011;56688;50.234;19.292;2023-12-07T14:19:45;102.70;;;42.10;;
69126;SDS011;56688;50.234;19.292;2023-12-07T14:22:16;109.10;;;42.70;;
69126;SDS011;56688;50.234;19.292;2023-12-07T14:24:43;120.20;;;44.90;;
69126;SDS011;56688;50.234;19.292;2023-12-07T14:27:10;118.40;;;46.00;;
69126;SDS011;56688;50.234;19.292;2023-12-07T14:29:37;122.10;;;50.70;;
69126;SDS011;56688;50.234;19.292;2023-12-07T14:32:04;123.00;;;50.10;;
69126;SDS011;56688;50.234;19.292;2023-12-07T14:34:31;125.20;;;51.70;;
69126;SDS011;56688;50.234;19.292;2023-12-07T14:37:02;127.20;;;52.90;;